sensor_id;sensor_type;location;lat;lon;timestamp;temperature;humidity
73688;SHT30;62257;48.376;-4.378;2022-08-25T10:22:03;22.44;94.63
73688;SHT30;62257;48.376;-4.378;2022-08-25T10:24:29;22.10;94.84
73688;SHT30;62257;48.376;-4.378;2022-08-25T10:32:13;22.19;95.00
73688;SHT30;62257;48.376;-4.378;2022-08-25T10:34:53;22.27;94.95
73688;SHT30;62257;48.376;-4.378;2022-08-25T10:45:24;22.34;95.10
73688;SHT30;62257;48.376;-4.378;2022-08-25T10:50:41;22.22;95.08
73688;SHT30;62257;48.376;-4.378;2022-08-25T10:53:22;22.37;95.08
73688;SHT30;62257;48.376;-4.378;2022-08-25T10:55:53;22.01;95.09
73688;SHT30;62257;48.376;-4.378;2022-08-25T10:58:48;22.22;95.10
73688;SHT30;62257;48.376;-4.378;2022-08-25T11:04:09;22.24;95.15
73688;SHT30;62257;48.376;-4.378;2022-08-25T11:09:07;22.12;95.08
73688;SHT30;62257;48.376;-4.378;2022-08-25T11:11:58;22.14;95.09
73688;SHT30;62257;48.376;-4.378;2022-08-25T11:14:52;22.45;95.15
73688;SHT30;62257;48.376;-4.378;2022-08-25T11:17:19;22.59;95.16
73688;SHT30;62257;48.376;-4.378;2022-08-25T11:19:56;22.32;95.11
73688;SHT30;62257;48.376;-4.378;2022-08-25T11:22:41;22.49;95.03
73688;SHT30;62257;48.376;-4.378;2022-08-25T11:25:17;22.83;95.03
73688;SHT30;62257;48.376;-4.378;2022-08-25T11:27:54;23.06;95.08
73688;SHT30;62257;48.376;-4.378;2022-08-25T11:30:22;23.30;95.10
73688;SHT30;62257;48.376;-4.378;2022-08-25T11:32:50;23.28;95.02
73688;SHT30;62257;48.376;-4.378;2022-08-25T11:35:38;23.28;94.94
73688;SHT30;62257;48.376;-4.378;2022-08-25T11:52:56;23.14;94.77
73688;SHT30;62257;48.376;-4.378;2022-08-25T12:00:42;22.76;94.71
73688;SHT30;62257;48.376;-4.378;2022-08-25T12:21:53;22.97;94.61
73688;SHT30;62257;48.376;-4.378;2022-08-25T12:29:49;23.27;94.49
73688;SHT30;62257;48.376;-4.378;2022-08-25T12:37:32;23.14;94.45
73688;SHT30;62257;48.376;-4.378;2022-08-25T12:40:00;23.00;94.47
73688;SHT30;62257;48.376;-4.378;2022-08-25T12:42:30;22.87;94.54
73688;SHT30;62257;48.376;-4.378;2022-08-25T12:47:34;22.41;94.87
73688;SHT30;62257;48.376;-4.378;2022-08-25T12:50:29;22.25;94.55
73688;SHT30;62257;48.376;-4.378;2022-08-25T12:55:32;22.10;93.84
73688;SHT30;62257;48.376;-4.378;2022-08-25T12:57:59;22.22;93.64
73688;SHT30;62257;48.376;-4.378;2022-08-25T13:00:28;21.89;95.53
73688;SHT30;62257;48.376;-4.378;2022-08-25T13:03:36;21.94;96.63
73688;SHT30;62257;48.376;-4.378;2022-08-25T13:09:16;22.02;96.64
73688;SHT30;62257;48.376;-4.378;2022-08-25T13:11:46;21.96;96.26
73688;SHT30;62257;48.376;-4.378;2022-08-25T13:16:59;21.74;96.55
73688;SHT30;62257;48.376;-4.378;2022-08-25T13:19:26;21.63;95.43
73688;SHT30;62257;48.376;-4.378;2022-08-25T13:21:53;21.04;89.97
73688;SHT30;62257;48.376;-4.378;2022-08-25T13:24:25;20.81;89.79
73688;SHT30;62257;48.376;-4.378;2022-08-25T13:27:03;21.01;89.45
73688;SHT30;62257;48.376;-4.378;2022-08-25T13:29:32;21.38;92.40
73688;SHT30;62257;48.376;-4.378;2022-08-25T13:32:03;21.28;85.47
73688;SHT30;62257;48.376;-4.378;2022-08-25T13:34:32;21.63;93.71
73688;SHT30;62257;48.376;-4.378;2022-08-25T13:37:05;21.52;92.87
73688;SHT30;62257;48.376;-4.378;2022-08-25T13:39:49;21.38;91.75
73688;SHT30;62257;48.376;-4.378;2022-08-25T13:42:16;21.32;90.59
73688;SHT30;62257;48.376;-4.378;2022-08-25T13:44:42;21.29;80.50
73688;SHT30;62257;48.376;-4.378;2022-08-25T13:47:23;21.46;80.08
73688;SHT30;62257;48.376;-4.378;2022-08-25T13:50:20;21.49;70.63
73688;SHT30;62257;48.376;-4.378;2022-08-25T13:55:24;21.76;79.10
73688;SHT30;62257;48.376;-4.378;2022-08-25T13:57:50;21.91;78.14
73688;SHT30;62257;48.376;-4.378;2022-08-25T14:00:37;21.96;74.01
73688;SHT30;62257;48.376;-4.378;2022-08-25T14:03:05;21.96;68.24
73688;SHT30;62257;48.376;-4.378;2022-08-25T14:05:40;21.96;76.34
73688;SHT30;62257;48.376;-4.378;2022-08-25T14:08:32;21.90;73.28
73688;SHT30;62257;48.376;-4.378;2022-08-25T14:14:03;21.96;78.91
73688;SHT30;62257;48.376;-4.378;2022-08-25T14:16:31;21.96;67.32
73688;SHT30;62257;48.376;-4.378;2022-08-25T14:18:58;21.80;79.50
73688;SHT30;62257;48.376;-4.378;2022-08-25T14:21:28;21.54;67.12
73688;SHT30;62257;48.376;-4.378;2022-08-25T14:23:54;21.46;75.68
73688;SHT30;62257;48.376;-4.378;2022-08-25T14:26:20;21.45;68.73
73688;SHT30;62257;48.376;-4.378;2022-08-25T14:28:46;21.46;75.51
73688;SHT30;62257;48.376;-4.378;2022-08-25T14:31:23;21.35;71.33
73688;SHT30;62257;48.376;-4.378;2022-08-25T14:33:56;21.19;75.19
73688;SHT30;62257;48.376;-4.378;2022-08-25T14:36:22;21.18;63.56
73688;SHT30;62257;48.376;-4.378;2022-08-25T14:38:48;21.29;78.17
73688;SHT30;62257;48.376;-4.378;2022-08-25T14:41:13;21.35;65.36
73688;SHT30;62257;48.376;-4.378;2022-08-25T14:43:40;21.57;72.79
73688;SHT30;62257;48.376;-4.378;2022-08-25T14:46:17;21.38;59.23
73688;SHT30;62257;48.376;-4.378;2022-08-25T14:48:46;21.39;66.92
73688;SHT30;62257;48.376;-4.378;2022-08-25T14:51:14;21.22;67.30
73688;SHT30;62257;48.376;-4.378;2022-08-25T14:53:41;21.05;64.73
73688;SHT30;62257;48.376;-4.378;2022-08-25T14:56:08;21.04;71.82
73688;SHT30;62257;48.376;-4.378;2022-08-25T14:58:33;21.05;65.99
73688;SHT30;62257;48.376;-4.378;2022-08-25T15:00:59;21.05;70.19
73688;SHT30;62257;48.376;-4.378;2022-08-25T15:03:37;21.01;65.10
73688;SHT30;62257;48.376;-4.378;2022-08-25T15:06:04;20.92;64.50
73688;SHT30;62257;48.376;-4.378;2022-08-25T15:08:30;20.80;68.33
73688;SHT30;62257;48.376;-4.378;2022-08-25T15:11:14;20.78;67.52
73688;SHT30;62257;48.376;-4.378;2022-08-25T15:13:40;20.80;69.43
73688;SHT30;62257;48.376;-4.378;2022-08-25T15:16:07;20.97;64.58
73688;SHT30;62257;48.376;-4.378;2022-08-25T15:18:33;20.97;66.63
73688;SHT30;62257;48.376;-4.378;2022-08-25T15:20:59;21.02;68.69
73688;SHT30;62257;48.376;-4.378;2022-08-25T15:23:24;21.09;73.78
73688;SHT30;62257;48.376;-4.378;2022-08-25T15:25:53;21.15;68.74
73688;SHT30;62257;48.376;-4.378;2022-08-25T15:28:19;21.15;76.27
73688;SHT30;62257;48.376;-4.378;2022-08-25T15:30:45;21.14;72.42
73688;SHT30;62257;48.376;-4.378;2022-08-25T15:33:10;21.15;66.54
73688;SHT30;62257;48.376;-4.378;2022-08-25T15:35:36;20.99;68.01
73688;SHT30;62257;48.376;-4.378;2022-08-25T15:38:01;20.83;65.48
73688;SHT30;62257;48.376;-4.378;2022-08-25T15:40:27;20.67;60.94
73688;SHT30;62257;48.376;-4.378;2022-08-25T15:42:52;20.50;64.68
73688;SHT30;62257;48.376;-4.378;2022-08-25T15:45:18;20.42;69.58
73688;SHT30;62257;48.376;-4.378;2022-08-25T15:47:44;20.34;70.30
73688;SHT30;62257;48.376;-4.378;2022-08-25T15:50:16;20.39;72.69
73688;SHT30;62257;48.376;-4.378;2022-08-25T15:52:42;20.30;65.64
73688;SHT30;62257;48.376;-4.378;2022-08-25T15:55:08;20.19;64.41
73688;SHT30;62257;48.376;-4.378;2022-08-25T15:57:34;20.12;75.48
73688;SHT30;62257;48.376;-4.378;2022-08-25T16:00:01;20.05;66.79
73688;SHT30;62257;48.376;-4.378;2022-08-25T16:02:27;19.94;67.23
73688;SHT30;62257;48.376;-4.378;2022-08-25T16:04:52;19.98;71.99
73688;SHT30;62257;48.376;-4.378;2022-08-25T16:07:18;19.88;69.21
73688;SHT30;62257;48.376;-4.378;2022-08-25T16:09:45;19.91;68.35
73688;SHT30;62257;48.376;-4.378;2022-08-25T16:12:11;19.89;69.68
73688;SHT30;62257;48.376;-4.378;2022-08-25T16:14:37;19.91;76.10
73688;SHT30;62257;48.376;-4.378;2022-08-25T16:17:04;19.75;69.22
73688;SHT30;62257;48.376;-4.378;2022-08-25T16:19:30;19.74;71.94
73688;SHT30;62257;48.376;-4.378;2022-08-25T16:21:57;19.73;75.00
73688;SHT30;62257;48.376;-4.378;2022-08-25T16:24:23;19.63;69.11
73688;SHT30;62257;48.376;-4.378;2022-08-25T16:26:48;19.68;72.88
73688;SHT30;62257;48.376;-4.378;2022-08-25T16:29:16;19.82;77.91
73688;SHT30;62257;48.376;-4.378;2022-08-25T16:31:42;19.68;72.94
73688;SHT30;62257;48.376;-4.378;2022-08-25T16:34:07;19.73;69.42
73688;SHT30;62257;48.376;-4.378;2022-08-25T16:36:33;19.82;75.43
73688;SHT30;62257;48.376;-4.378;2022-08-25T16:39:00;19.77;70.52
73688;SHT30;62257;48.376;-4.378;2022-08-25T16:41:29;19.70;73.23
73688;SHT30;62257;48.376;-4.378;2022-08-25T16:43:59;19.78;72.26
73688;SHT30;62257;48.376;-4.378;2022-08-25T16:46:25;19.91;71.33
73688;SHT30;62257;48.376;-4.378;2022-08-25T16:48:51;19.95;68.46
73688;SHT30;62257;48.376;-4.378;2022-08-25T16:51:19;20.15;71.06
73688;SHT30;62257;48.376;-4.378;2022-08-25T16:53:45;20.22;73.18
73688;SHT30;62257;48.376;-4.378;2022-08-25T16:56:31;20.19;73.22
73688;SHT30;62257;48.376;-4.378;2022-08-25T16:59:00;20.13;70.35
73688;SHT30;62257;48.376;-4.378;2022-08-25T17:01:28;20.19;76.08
73688;SHT30;62257;48.376;-4.378;2022-08-25T17:03:55;20.11;76.05
73688;SHT30;62257;48.376;-4.378;2022-08-25T17:06:23;20.11;69.61
73688;SHT30;62257;48.376;-4.378;2022-08-25T17:08:48;19.96;70.13
73688;SHT30;62257;48.376;-4.378;2022-08-25T17:11:29;19.94;74.11
73688;SHT30;62257;48.376;-4.378;2022-08-25T17:13:57;19.89;78.19
73688;SHT30;62257;48.376;-4.378;2022-08-25T17:16:26;19.95;70.47
73688;SHT30;62257;48.376;-4.378;2022-08-25T17:18:52;20.01;74.29
73688;SHT30;62257;48.376;-4.378;2022-08-25T17:21:20;19.95;69.53
73688;SHT30;62257;48.376;-4.378;2022-08-25T17:23:46;19.89;74.58
73688;SHT30;62257;48.376;-4.378;2022-08-25T17:26:14;19.88;71.84
73688;SHT30;62257;48.376;-4.378;2022-08-25T17:28:40;19.79;67.10
73688;SHT30;62257;48.376;-4.378;2022-08-25T17:31:07;19.79;67.66
73688;SHT30;62257;48.376;-4.378;2022-08-25T17:33:32;19.88;69.93
73688;SHT30;62257;48.376;-4.378;2022-08-25T17:35:58;19.92;69.66
73688;SHT30;62257;48.376;-4.378;2022-08-25T17:38:26;20.02;69.18
73688;SHT30;62257;48.376;-4.378;2022-08-25T17:40:55;20.09;74.58
73688;SHT30;62257;48.376;-4.378;2022-08-25T17:43:22;20.13;71.41
73688;SHT30;62257;48.376;-4.378;2022-08-25T17:45:49;20.13;67.27
73688;SHT30;62257;48.376;-4.378;2022-08-25T17:48:16;20.09;76.35
73688;SHT30;62257;48.376;-4.378;2022-08-25T17:50:42;19.99;69.26
73688;SHT30;62257;48.376;-4.378;2022-08-25T17:53:08;20.02;67.73
73688;SHT30;62257;48.376;-4.378;2022-08-25T17:55:34;20.02;75.54
73688;SHT30;62257;48.376;-4.378;2022-08-25T17:57:59;19.99;73.32
73688;SHT30;62257;48.376;-4.378;2022-08-25T18:00:27;19.98;76.45
73688;SHT30;62257;48.376;-4.378;2022-08-25T18:02:53;19.94;75.90
73688;SHT30;62257;48.376;-4.378;2022-08-25T18:05:18;19.91;71.17
73688;SHT30;62257;48.376;-4.378;2022-08-25T18:07:44;19.89;74.17
73688;SHT30;62257;48.376;-4.378;2022-08-25T18:10:10;19.86;69.52
73688;SHT30;62257;48.376;-4.378;2022-08-25T18:12:36;19.77;67.05
73688;SHT30;62257;48.376;-4.378;2022-08-25T18:15:03;19.70;71.20
73688;SHT30;62257;48.376;-4.378;2022-08-25T18:17:30;19.68;68.65
73688;SHT30;62257;48.376;-4.378;2022-08-25T18:19:55;19.66;74.76
73688;SHT30;62257;48.376;-4.378;2022-08-25T18:22:21;19.60;74.53
73688;SHT30;62257;48.376;-4.378;2022-08-25T18:24:46;19.53;72.48
73688;SHT30;62257;48.376;-4.378;2022-08-25T18:27:12;19.45;75.58
73688;SHT30;62257;48.376;-4.378;2022-08-25T18:29:38;19.31;71.77
73688;SHT30;62257;48.376;-4.378;2022-08-25T18:32:05;19.24;72.23
73688;SHT30;62257;48.376;-4.378;2022-08-25T18:34:30;19.19;70.90
73688;SHT30;62257;48.376;-4.378;2022-08-25T18:36:56;19.13;72.67
73688;SHT30;62257;48.376;-4.378;2022-08-25T18:39:41;19.10;71.42
73688;SHT30;62257;48.376;-4.378;2022-08-25T18:42:25;19.01;72.54
73688;SHT30;62257;48.376;-4.378;2022-08-25T18:44:53;18.99;72.22
73688;SHT30;62257;48.376;-4.378;2022-08-25T18:47:18;18.89;72.74
73688;SHT30;62257;48.376;-4.378;2022-08-25T18:49:43;18.74;71.65
73688;SHT30;62257;48.376;-4.378;2022-08-25T18:52:10;18.60;71.42
73688;SHT30;62257;48.376;-4.378;2022-08-25T18:54:36;18.50;79.31
73688;SHT30;62257;48.376;-4.378;2022-08-25T18:57:01;18.43;77.85
73688;SHT30;62257;48.376;-4.378;2022-08-25T18:59:26;18.36;77.76
73688;SHT30;62257;48.376;-4.378;2022-08-25T19:01:52;18.23;74.05
73688;SHT30;62257;48.376;-4.378;2022-08-25T19:04:18;18.17;75.67
73688;SHT30;62257;48.376;-4.378;2022-08-25T19:06:43;18.09;73.90
73688;SHT30;62257;48.376;-4.378;2022-08-25T19:09:08;18.00;73.65
73688;SHT30;62257;48.376;-4.378;2022-08-25T19:11:34;17.96;76.70
73688;SHT30;62257;48.376;-4.378;2022-08-25T19:13:59;17.89;74.41
73688;SHT30;62257;48.376;-4.378;2022-08-25T19:16:32;17.82;75.58
73688;SHT30;62257;48.376;-4.378;2022-08-25T19:18:59;17.72;76.25
73688;SHT30;62257;48.376;-4.378;2022-08-25T19:21:24;17.67;76.92
73688;SHT30;62257;48.376;-4.378;2022-08-25T19:23:50;17.62;76.84
73688;SHT30;62257;48.376;-4.378;2022-08-25T19:26:17;17.51;76.55
73688;SHT30;62257;48.376;-4.378;2022-08-25T19:28:44;17.48;75.89
73688;SHT30;62257;48.376;-4.378;2022-08-25T19:31:10;17.41;78.23
73688;SHT30;62257;48.376;-4.378;2022-08-25T19:33:35;17.34;76.12
73688;SHT30;62257;48.376;-4.378;2022-08-25T19:36:01;17.28;75.54
73688;SHT30;62257;48.376;-4.378;2022-08-25T19:38:27;17.24;77.13
73688;SHT30;62257;48.376;-4.378;2022-08-25T19:40:53;17.23;78.51
73688;SHT30;62257;48.376;-4.378;2022-08-25T19:43:19;17.20;81.82
73688;SHT30;62257;48.376;-4.378;2022-08-25T19:45:45;17.12;76.63
73688;SHT30;62257;48.376;-4.378;2022-08-25T19:48:14;17.10;77.74
73688;SHT30;62257;48.376;-4.378;2022-08-25T19:50:39;17.10;79.01
73688;SHT30;62257;48.376;-4.378;2022-08-25T19:53:05;17.02;79.12
73688;SHT30;62257;48.376;-4.378;2022-08-25T19:55:30;17.00;79.39
73688;SHT30;62257;48.376;-4.378;2022-08-25T19:57:56;16.96;82.71
73688;SHT30;62257;48.376;-4.378;2022-08-25T20:00:25;16.87;77.33
73688;SHT30;62257;48.376;-4.378;2022-08-25T20:02:56;16.82;77.69
73688;SHT30;62257;48.376;-4.378;2022-08-25T20:05:23;16.79;81.76
73688;SHT30;62257;48.376;-4.378;2022-08-25T20:07:50;16.76;80.14
73688;SHT30;62257;48.376;-4.378;2022-08-25T20:10:16;16.72;80.13
73688;SHT30;62257;48.376;-4.378;2022-08-25T20:12:42;16.68;79.49
73688;SHT30;62257;48.376;-4.378;2022-08-25T20:15:13;16.64;79.53
73688;SHT30;62257;48.376;-4.378;2022-08-25T20:17:39;16.55;79.22
73688;SHT30;62257;48.376;-4.378;2022-08-25T20:20:10;16.52;81.33
73688;SHT30;62257;48.376;-4.378;2022-08-25T20:22:36;16.51;82.65
73688;SHT30;62257;48.376;-4.378;2022-08-25T20:25:06;16.49;79.35
73688;SHT30;62257;48.376;-4.378;2022-08-25T20:27:37;16.44;83.21
73688;SHT30;62257;48.376;-4.378;2022-08-25T20:30:06;16.40;81.89
73688;SHT30;62257;48.376;-4.378;2022-08-25T20:32:32;16.41;82.95
73688;SHT30;62257;48.376;-4.378;2022-08-25T20:35:00;16.31;80.09
73688;SHT30;62257;48.376;-4.378;2022-08-25T20:37:25;16.27;80.63
73688;SHT30;62257;48.376;-4.378;2022-08-25T20:39:51;16.27;82.35
73688;SHT30;62257;48.376;-4.378;2022-08-25T20:42:17;16.24;82.43
73688;SHT30;62257;48.376;-4.378;2022-08-25T20:44:43;16.22;81.01
73688;SHT30;62257;48.376;-4.378;2022-08-25T20:47:09;16.22;83.26
73688;SHT30;62257;48.376;-4.378;2022-08-25T20:49:36;16.20;81.43
73688;SHT30;62257;48.376;-4.378;2022-08-25T20:52:03;16.18;82.31
73688;SHT30;62257;48.376;-4.378;2022-08-25T20:54:29;16.17;85.40
73688;SHT30;62257;48.376;-4.378;2022-08-25T20:56:55;16.14;84.59
73688;SHT30;62257;48.376;-4.378;2022-08-25T20:59:25;16.09;81.42
73688;SHT30;62257;48.376;-4.378;2022-08-25T21:01:52;16.04;81.23
73688;SHT30;62257;48.376;-4.378;2022-08-25T21:04:19;16.04;85.28
73688;SHT30;62257;48.376;-4.378;2022-08-25T21:06:47;15.99;83.99
73688;SHT30;62257;48.376;-4.378;2022-08-25T21:09:16;15.97;82.61
73688;SHT30;62257;48.376;-4.378;2022-08-25T21:11:43;15.94;82.23
73688;SHT30;62257;48.376;-4.378;2022-08-25T21:14:08;15.94;85.89
73688;SHT30;62257;48.376;-4.378;2022-08-25T21:16:35;15.92;83.97
73688;SHT30;62257;48.376;-4.378;2022-08-25T21:19:02;15.92;83.05
73688;SHT30;62257;48.376;-4.378;2022-08-25T21:21:28;15.86;82.93
73688;SHT30;62257;48.376;-4.378;2022-08-25T21:23:53;15.86;84.48
73688;SHT30;62257;48.376;-4.378;2022-08-25T21:26:21;15.85;84.60
73688;SHT30;62257;48.376;-4.378;2022-08-25T21:28:47;15.81;84.19
73688;SHT30;62257;48.376;-4.378;2022-08-25T21:31:14;15.81;84.16
73688;SHT30;62257;48.376;-4.378;2022-08-25T21:33:40;15.81;84.32
73688;SHT30;62257;48.376;-4.378;2022-08-25T21:36:09;15.76;83.89
73688;SHT30;62257;48.376;-4.378;2022-08-25T21:38:36;15.76;86.04
73688;SHT30;62257;48.376;-4.378;2022-08-25T21:41:20;15.72;84.67
73688;SHT30;62257;48.376;-4.378;2022-08-25T21:43:47;15.69;83.84
73688;SHT30;62257;48.376;-4.378;2022-08-25T21:46:15;15.70;84.91
73688;SHT30;62257;48.376;-4.378;2022-08-25T21:48:41;15.66;83.97
73688;SHT30;62257;48.376;-4.378;2022-08-25T21:51:10;15.66;84.80
73688;SHT30;62257;48.376;-4.378;2022-08-25T21:53:36;15.63;85.01
73688;SHT30;62257;48.376;-4.378;2022-08-25T21:56:11;15.63;86.73
73688;SHT30;62257;48.376;-4.378;2022-08-25T21:58:40;15.67;85.39
73688;SHT30;62257;48.376;-4.378;2022-08-25T22:01:10;15.66;85.29
73688;SHT30;62257;48.376;-4.378;2022-08-25T22:03:36;15.63;87.47
73688;SHT30;62257;48.376;-4.378;2022-08-25T22:06:04;15.56;84.35
73688;SHT30;62257;48.376;-4.378;2022-08-25T22:08:31;15.56;85.30
73688;SHT30;62257;48.376;-4.378;2022-08-25T22:10:58;15.58;85.24
73688;SHT30;62257;48.376;-4.378;2022-08-25T22:13:25;15.61;86.29
73688;SHT30;62257;48.376;-4.378;2022-08-25T22:15:50;15.56;86.00
73688;SHT30;62257;48.376;-4.378;2022-08-25T22:18:16;15.55;85.35
73688;SHT30;62257;48.376;-4.378;2022-08-25T22:20:41;15.55;86.67
73688;SHT30;62257;48.376;-4.378;2022-08-25T22:23:07;15.54;84.72
73688;SHT30;62257;48.376;-4.378;2022-08-25T22:25:33;15.52;85.22
73688;SHT30;62257;48.376;-4.378;2022-08-25T22:27:58;15.48;85.46
73688;SHT30;62257;48.376;-4.378;2022-08-25T22:30:24;15.49;86.33
73688;SHT30;62257;48.376;-4.378;2022-08-25T22:32:50;15.49;85.48
73688;SHT30;62257;48.376;-4.378;2022-08-25T22:35:15;15.48;84.53
73688;SHT30;62257;48.376;-4.378;2022-08-25T22:37:41;15.48;86.51
73688;SHT30;62257;48.376;-4.378;2022-08-25T22:40:07;15.48;85.57
73688;SHT30;62257;48.376;-4.378;2022-08-25T22:42:33;15.49;87.35
73688;SHT30;62257;48.376;-4.378;2022-08-25T22:44:58;15.48;84.48
73688;SHT30;62257;48.376;-4.378;2022-08-25T22:47:24;15.48;85.07
73688;SHT30;62257;48.376;-4.378;2022-08-25T22:49:49;15.46;86.59
73688;SHT30;62257;48.376;-4.378;2022-08-25T22:52:16;15.45;86.01
73688;SHT30;62257;48.376;-4.378;2022-08-25T22:54:42;15.42;83.81
73688;SHT30;62257;48.376;-4.378;2022-08-25T22:57:09;15.41;85.81
73688;SHT30;62257;48.376;-4.378;2022-08-25T22:59:34;15.39;84.57
73688;SHT30;62257;48.376;-4.378;2022-08-25T23:02:00;15.42;85.64
73688;SHT30;62257;48.376;-4.378;2022-08-25T23:04:25;15.42;84.08
73688;SHT30;62257;48.376;-4.378;2022-08-25T23:06:51;15.41;86.25
73688;SHT30;62257;48.376;-4.378;2022-08-25T23:09:16;15.39;85.42
73688;SHT30;62257;48.376;-4.378;2022-08-25T23:11:42;15.36;84.72
73688;SHT30;62257;48.376;-4.378;2022-08-25T23:14:08;15.36;86.23
73688;SHT30;62257;48.376;-4.378;2022-08-25T23:16:36;15.39;85.65
73688;SHT30;62257;48.376;-4.378;2022-08-25T23:19:02;15.34;84.01
73688;SHT30;62257;48.376;-4.378;2022-08-25T23:21:28;15.36;84.45
73688;SHT30;62257;48.376;-4.378;2022-08-25T23:24:13;15.34;84.46
73688;SHT30;62257;48.376;-4.378;2022-08-25T23:26:39;15.32;85.84
73688;SHT30;62257;48.376;-4.378;2022-08-25T23:29:04;15.34;86.95
73688;SHT30;62257;48.376;-4.378;2022-08-25T23:31:30;15.31;84.65
73688;SHT30;62257;48.376;-4.378;2022-08-25T23:33:56;15.30;84.69
73688;SHT30;62257;48.376;-4.378;2022-08-25T23:36:22;15.30;84.59
73688;SHT30;62257;48.376;-4.378;2022-08-25T23:38:47;15.25;84.28
73688;SHT30;62257;48.376;-4.378;2022-08-25T23:41:15;15.27;85.23
73688;SHT30;62257;48.376;-4.378;2022-08-25T23:43:42;15.25;84.92
73688;SHT30;62257;48.376;-4.378;2022-08-25T23:46:08;15.27;86.30
73688;SHT30;62257;48.376;-4.378;2022-08-25T23:48:34;15.28;85.77
73688;SHT30;62257;48.376;-4.378;2022-08-25T23:50:59;15.25;85.89
73688;SHT30;62257;48.376;-4.378;2022-08-25T23:53:26;15.27;84.95
73688;SHT30;62257;48.376;-4.378;2022-08-25T23:55:52;15.23;84.08
73688;SHT30;62257;48.376;-4.378;2022-08-25T23:58:19;15.20;83.89
